sensor_id;sensor_type;location;lat;lon;timestamp;P1;durP1;ratioP1;P2;durP2;ratioP2
19889;SDS011;10107;51.198;6.824;2022-07-23T00:01:35;16.13;;;10.57;;
19889;SDS011;10107;51.198;6.824;2022-07-23T00:05:37;20.55;;;13.75;;
19889;SDS011;10107;51.198;6.824;2022-07-23T00:09:40;14.20;;;10.02;;
19889;SDS011;10107;51.198;6.824;2022-07-23T00:13:42;13.43;;;9.43;;
19889;SDS011;10107;51.198;6.824;2022-07-23T00:17:44;13.75;;;8.98;;
19889;SDS011;10107;51.198;6.824;2022-07-23T00:21:46;15.43;;;9.45;;
19889;SDS011;10107;51.198;6.824;2022-07-23T00:25:49;17.00;;;11.20;;
19889;SDS011;10107;51.198;6.824;2022-07-23T00:29:51;12.48;;;7.03;;
19889;SDS011;10107;51.198;6.824;2022-07-23T00:33:53;14.18;;;10.20;;
19889;SDS011;10107;51.198;6.824;2022-07-23T00:37:57;15.60;;;10.30;;
19889;SDS011;10107;51.198;6.824;2022-07-23T00:42:00;14.57;;;9.50;;
19889;SDS011;10107;51.198;6.824;2022-07-23T00:46:02;11.10;;;7.35;;
19889;SDS011;10107;51.198;6.824;2022-07-23T00:50:05;16.75;;;11.23;;
19889;SDS011;10107;51.198;6.824;2022-07-23T00:54:09;18.33;;;10.88;;
19889;SDS011;10107;51.198;6.824;2022-07-23T00:58:12;15.70;;;10.52;;
19889;SDS011;10107;51.198;6.824;2022-07-23T01:02:15;14.73;;;9.77;;
19889;SDS011;10107;51.198;6.824;2022-07-23T01:06:16;14.05;;;10.05;;
19889;SDS011;10107;51.198;6.824;2022-07-23T01:10:18;13.93;;;9.30;;
19889;SDS011;10107;51.198;6.824;2022-07-23T01:14:33;15.50;;;10.27;;
19889;SDS011;10107;51.198;6.824;2022-07-23T01:18:35;16.92;;;10.80;;
19889;SDS011;10107;51.198;6.824;2022-07-23T01:22:39;14.63;;;9.48;;
19889;SDS011;10107;51.198;6.824;2022-07-23T01:26:41;10.23;;;6.53;;
19889;SDS011;10107;51.198;6.824;2022-07-23T01:34:46;14.55;;;10.27;;
19889;SDS011;10107;51.198;6.824;2022-07-23T01:38:49;13.32;;;9.10;;
19889;SDS011;10107;51.198;6.824;2022-07-23T01:42:52;15.65;;;10.13;;
19889;SDS011;10107;51.198;6.824;2022-07-23T01:46:55;14.02;;;9.30;;
19889;SDS011;10107;51.198;6.824;2022-07-23T01:50:57;13.55;;;8.70;;
19889;SDS011;10107;51.198;6.824;2022-07-23T01:55:17;14.05;;;8.77;;
19889;SDS011;10107;51.198;6.824;2022-07-23T01:59:20;15.32;;;10.30;;
19889;SDS011;10107;51.198;6.824;2022-07-23T02:03:22;13.27;;;8.60;;
19889;SDS011;10107;51.198;6.824;2022-07-23T02:07:25;12.88;;;9.20;;
19889;SDS011;10107;51.198;6.824;2022-07-23T02:11:28;13.80;;;9.15;;
19889;SDS011;10107;51.198;6.824;2022-07-23T02:15:30;10.52;;;7.57;;
19889;SDS011;10107;51.198;6.824;2022-07-23T02:19:33;15.55;;;9.23;;
19889;SDS011;10107;51.198;6.824;2022-07-23T02:23:35;13.10;;;9.00;;
19889;SDS011;10107;51.198;6.824;2022-07-23T02:27:40;13.93;;;9.03;;
19889;SDS011;10107;51.198;6.824;2022-07-23T02:31:43;13.88;;;9.77;;
19889;SDS011;10107;51.198;6.824;2022-07-23T02:35:46;14.10;;;9.80;;
19889;SDS011;10107;51.198;6.824;2022-07-23T02:39:49;14.32;;;9.32;;
19889;SDS011;10107;51.198;6.824;2022-07-23T02:43:52;12.40;;;8.82;;
19889;SDS011;10107;51.198;6.824;2022-07-23T02:47:55;11.15;;;7.95;;
19889;SDS011;10107;51.198;6.824;2022-07-23T02:51:57;13.13;;;8.93;;
19889;SDS011;10107;51.198;6.824;2022-07-23T02:56:00;12.35;;;9.10;;
19889;SDS011;10107;51.198;6.824;2022-07-23T03:00:04;12.23;;;8.55;;
19889;SDS011;10107;51.198;6.824;2022-07-23T03:04:07;15.32;;;10.38;;
19889;SDS011;10107;51.198;6.824;2022-07-23T03:08:09;14.95;;;8.98;;
19889;SDS011;10107;51.198;6.824;2022-07-23T03:12:14;14.15;;;9.30;;
19889;SDS011;10107;51.198;6.824;2022-07-23T03:16:17;12.30;;;8.52;;
19889;SDS011;10107;51.198;6.824;2022-07-23T03:20:19;13.85;;;8.88;;
19889;SDS011;10107;51.198;6.824;2022-07-23T03:24:21;14.20;;;9.60;;
19889;SDS011;10107;51.198;6.824;2022-07-23T03:28:24;12.68;;;8.60;;
19889;SDS011;10107;51.198;6.824;2022-07-23T03:32:27;11.15;;;8.02;;
19889;SDS011;10107;51.198;6.824;2022-07-23T03:40:32;12.63;;;7.97;;
19889;SDS011;10107;51.198;6.824;2022-07-23T03:44:34;16.55;;;8.95;;
19889;SDS011;10107;51.198;6.824;2022-07-23T03:48:38;11.48;;;8.38;;
19889;SDS011;10107;51.198;6.824;2022-07-23T03:52:40;14.75;;;9.75;;
19889;SDS011;10107;51.198;6.824;2022-07-23T03:56:42;14.55;;;8.48;;
19889;SDS011;10107;51.198;6.824;2022-07-23T04:00:44;14.20;;;9.18;;
19889;SDS011;10107;51.198;6.824;2022-07-23T04:04:50;15.18;;;8.93;;
19889;SDS011;10107;51.198;6.824;2022-07-23T04:08:52;11.73;;;8.30;;
19889;SDS011;10107;51.198;6.824;2022-07-23T04:12:54;12.75;;;8.50;;
19889;SDS011;10107;51.198;6.824;2022-07-23T04:16:56;13.88;;;9.10;;
19889;SDS011;10107;51.198;6.824;2022-07-23T04:20:59;15.20;;;10.00;;
19889;SDS011;10107;51.198;6.824;2022-07-23T04:25:01;15.90;;;9.82;;
19889;SDS011;10107;51.198;6.824;2022-07-23T04:29:05;13.15;;;8.52;;
19889;SDS011;10107;51.198;6.824;2022-07-23T04:33:06;12.35;;;7.85;;
19889;SDS011;10107;51.198;6.824;2022-07-23T04:37:12;11.32;;;8.20;;
19889;SDS011;10107;51.198;6.824;2022-07-23T04:41:14;10.90;;;6.93;;
19889;SDS011;10107;51.198;6.824;2022-07-23T04:45:16;10.88;;;7.57;;
19889;SDS011;10107;51.198;6.824;2022-07-23T04:49:19;14.05;;;8.52;;
19889;SDS011;10107;51.198;6.824;2022-07-23T04:53:22;10.52;;;7.30;;
19889;SDS011;10107;51.198;6.824;2022-07-23T04:57:27;15.43;;;9.38;;
19889;SDS011;10107;51.198;6.824;2022-07-23T05:01:29;10.15;;;6.97;;
19889;SDS011;10107;51.198;6.824;2022-07-23T05:05:31;11.55;;;7.95;;
19889;SDS011;10107;51.198;6.824;2022-07-23T05:09:43;12.57;;;8.80;;
19889;SDS011;10107;51.198;6.824;2022-07-23T05:13:44;12.50;;;8.95;;
19889;SDS011;10107;51.198;6.824;2022-07-23T05:17:48;10.13;;;7.07;;
19889;SDS011;10107;51.198;6.824;2022-07-23T05:21:51;10.45;;;7.65;;
19889;SDS011;10107;51.198;6.824;2022-07-23T05:25:54;9.70;;;6.03;;
19889;SDS011;10107;51.198;6.824;2022-07-23T05:29:56;8.45;;;6.70;;
19889;SDS011;10107;51.198;6.824;2022-07-23T05:33:58;10.13;;;6.70;;
19889;SDS011;10107;51.198;6.824;2022-07-23T05:38:01;10.60;;;6.35;;
19889;SDS011;10107;51.198;6.824;2022-07-23T05:42:07;8.32;;;5.97;;
19889;SDS011;10107;51.198;6.824;2022-07-23T05:50:14;8.53;;;6.07;;
19889;SDS011;10107;51.198;6.824;2022-07-23T05:54:21;6.45;;;4.80;;
19889;SDS011;10107;51.198;6.824;2022-07-23T05:58:24;9.50;;;6.43;;
19889;SDS011;10107;51.198;6.824;2022-07-23T06:02:26;7.10;;;5.68;;
19889;SDS011;10107;51.198;6.824;2022-07-23T06:06:28;8.30;;;6.13;;
19889;SDS011;10107;51.198;6.824;2022-07-23T06:10:30;7.27;;;5.20;;
19889;SDS011;10107;51.198;6.824;2022-07-23T06:14:34;6.90;;;5.13;;
19889;SDS011;10107;51.198;6.824;2022-07-23T06:18:36;7.78;;;6.05;;
19889;SDS011;10107;51.198;6.824;2022-07-23T06:22:38;7.60;;;5.53;;
19889;SDS011;10107;51.198;6.824;2022-07-23T06:26:40;8.13;;;6.32;;
19889;SDS011;10107;51.198;6.824;2022-07-23T06:30:43;8.32;;;6.22;;
19889;SDS011;10107;51.198;6.824;2022-07-23T06:38:46;6.65;;;4.47;;
19889;SDS011;10107;51.198;6.824;2022-07-23T06:42:48;8.77;;;6.25;;
19889;SDS011;10107;51.198;6.824;2022-07-23T06:46:57;8.85;;;5.88;;
19889;SDS011;10107;51.198;6.824;2022-07-23T06:50:59;8.13;;;5.90;;
19889;SDS011;10107;51.198;6.824;2022-07-23T06:55:01;9.55;;;6.47;;
19889;SDS011;10107;51.198;6.824;2022-07-23T06:59:03;7.68;;;4.97;;
19889;SDS011;10107;51.198;6.824;2022-07-23T07:03:06;11.27;;;6.88;;
19889;SDS011;10107;51.198;6.824;2022-07-23T07:07:08;9.73;;;7.13;;
19889;SDS011;10107;51.198;6.824;2022-07-23T07:11:10;13.40;;;9.33;;
19889;SDS011;10107;51.198;6.824;2022-07-23T07:15:12;8.90;;;6.30;;
19889;SDS011;10107;51.198;6.824;2022-07-23T07:19:15;10.47;;;7.03;;
19889;SDS011;10107;51.198;6.824;2022-07-23T07:23:17;10.98;;;6.82;;
19889;SDS011;10107;51.198;6.824;2022-07-23T07:27:18;9.03;;;6.37;;
19889;SDS011;10107;51.198;6.824;2022-07-23T07:31:20;9.93;;;6.57;;
19889;SDS011;10107;51.198;6.824;2022-07-23T07:35:24;10.93;;;7.05;;
19889;SDS011;10107;51.198;6.824;2022-07-23T07:39:27;7.82;;;6.25;;
19889;SDS011;10107;51.198;6.824;2022-07-23T07:43:29;9.55;;;7.03;;
19889;SDS011;10107;51.198;6.824;2022-07-23T07:47:31;10.00;;;5.95;;
19889;SDS011;10107;51.198;6.824;2022-07-23T07:51:34;8.73;;;5.65;;
19889;SDS011;10107;51.198;6.824;2022-07-23T07:55:36;7.90;;;5.18;;
19889;SDS011;10107;51.198;6.824;2022-07-23T07:59:37;9.40;;;5.53;;
19889;SDS011;10107;51.198;6.824;2022-07-23T08:03:39;8.10;;;5.10;;
19889;SDS011;10107;51.198;6.824;2022-07-23T08:07:43;9.85;;;6.95;;
19889;SDS011;10107;51.198;6.824;2022-07-23T08:11:44;7.72;;;6.00;;
19889;SDS011;10107;51.198;6.824;2022-07-23T08:15:46;11.63;;;8.50;;
19889;SDS011;10107;51.198;6.824;2022-07-23T08:19:48;11.82;;;9.77;;
19889;SDS011;10107;51.198;6.824;2022-07-23T08:23:51;11.20;;;8.50;;
19889;SDS011;10107;51.198;6.824;2022-07-23T08:27:54;16.98;;;14.10;;
19889;SDS011;10107;51.198;6.824;2022-07-23T08:31:56;18.08;;;14.70;;
19889;SDS011;10107;51.198;6.824;2022-07-23T08:35:58;13.18;;;11.13;;
19889;SDS011;10107;51.198;6.824;2022-07-23T08:40:01;12.63;;;9.50;;
19889;SDS011;10107;51.198;6.824;2022-07-23T08:44:04;13.57;;;11.23;;
19889;SDS011;10107;51.198;6.824;2022-07-23T08:48:10;13.57;;;12.15;;
19889;SDS011;10107;51.198;6.824;2022-07-23T08:52:13;15.07;;;12.52;;
19889;SDS011;10107;51.198;6.824;2022-07-23T08:56:18;19.17;;;16.13;;
19889;SDS011;10107;51.198;6.824;2022-07-23T09:00:20;12.65;;;10.52;;
19889;SDS011;10107;51.198;6.824;2022-07-23T09:04:22;7.80;;;7.05;;
19889;SDS011;10107;51.198;6.824;2022-07-23T09:08:25;15.07;;;9.90;;
19889;SDS011;10107;51.198;6.824;2022-07-23T09:12:36;9.05;;;7.97;;
19889;SDS011;10107;51.198;6.824;2022-07-23T09:16:38;14.55;;;11.82;;
19889;SDS011;10107;51.198;6.824;2022-07-23T09:20:40;9.20;;;7.83;;
19889;SDS011;10107;51.198;6.824;2022-07-23T09:24:45;7.20;;;5.68;;
19889;SDS011;10107;51.198;6.824;2022-07-23T09:29:09;6.97;;;5.38;;
19889;SDS011;10107;51.198;6.824;2022-07-23T09:33:13;9.95;;;7.45;;
19889;SDS011;10107;51.198;6.824;2022-07-23T09:37:17;10.77;;;8.43;;
19889;SDS011;10107;51.198;6.824;2022-07-23T09:41:19;8.95;;;7.38;;
19889;SDS011;10107;51.198;6.824;2022-07-23T09:45:23;10.52;;;7.65;;
19889;SDS011;10107;51.198;6.824;2022-07-23T09:49:25;9.02;;;7.75;;
19889;SDS011;10107;51.198;6.824;2022-07-23T09:53:27;6.67;;;5.27;;
19889;SDS011;10107;51.198;6.824;2022-07-23T09:57:28;7.10;;;4.60;;
19889;SDS011;10107;51.198;6.824;2022-07-23T10:01:33;10.93;;;7.03;;
19889;SDS011;10107;51.198;6.824;2022-07-23T10:05:36;8.73;;;7.53;;
19889;SDS011;10107;51.198;6.824;2022-07-23T10:09:57;7.35;;;5.05;;
19889;SDS011;10107;51.198;6.824;2022-07-23T10:14:36;9.45;;;7.45;;
19889;SDS011;10107;51.198;6.824;2022-07-23T10:18:44;5.65;;;4.30;;
19889;SDS011;10107;51.198;6.824;2022-07-23T10:22:47;4.60;;;3.35;;
19889;SDS011;10107;51.198;6.824;2022-07-23T10:27:02;6.45;;;3.60;;
19889;SDS011;10107;51.198;6.824;2022-07-23T10:31:17;5.93;;;4.65;;
19889;SDS011;10107;51.198;6.824;2022-07-23T10:35:31;8.00;;;4.93;;
19889;SDS011;10107;51.198;6.824;2022-07-23T10:39:47;3.60;;;3.00;;
19889;SDS011;10107;51.198;6.824;2022-07-23T10:44:10;6.07;;;4.78;;
19889;SDS011;10107;51.198;6.824;2022-07-23T10:48:16;5.55;;;3.60;;
19889;SDS011;10107;51.198;6.824;2022-07-23T10:52:25;4.22;;;3.35;;
19889;SDS011;10107;51.198;6.824;2022-07-23T11:01:17;3.28;;;2.80;;
19889;SDS011;10107;51.198;6.824;2022-07-23T11:05:40;5.75;;;3.17;;
19889;SDS011;10107;51.198;6.824;2022-07-23T11:09:44;4.15;;;3.05;;
19889;SDS011;10107;51.198;6.824;2022-07-23T11:13:48;4.28;;;2.95;;
19889;SDS011;10107;51.198;6.824;2022-07-23T11:17:58;3.03;;;2.42;;
19889;SDS011;10107;51.198;6.824;2022-07-23T11:22:01;3.92;;;2.40;;
19889;SDS011;10107;51.198;6.824;2022-07-23T11:26:05;4.70;;;3.10;;
19889;SDS011;10107;51.198;6.824;2022-07-23T11:30:07;4.20;;;2.78;;
19889;SDS011;10107;51.198;6.824;2022-07-23T11:34:30;4.93;;;2.90;;
19889;SDS011;10107;51.198;6.824;2022-07-23T11:38:32;4.18;;;3.00;;
19889;SDS011;10107;51.198;6.824;2022-07-23T11:42:37;4.57;;;2.88;;
19889;SDS011;10107;51.198;6.824;2022-07-23T11:46:39;4.75;;;2.95;;
19889;SDS011;10107;51.198;6.824;2022-07-23T11:50:41;3.97;;;2.83;;
19889;SDS011;10107;51.198;6.824;2022-07-23T11:54:46;5.05;;;3.30;;
19889;SDS011;10107;51.198;6.824;2022-07-23T11:58:55;5.10;;;2.72;;
19889;SDS011;10107;51.198;6.824;2022-07-23T12:02:59;3.17;;;2.28;;
19889;SDS011;10107;51.198;6.824;2022-07-23T12:11:29;5.10;;;2.55;;
19889;SDS011;10107;51.198;6.824;2022-07-23T12:15:33;3.40;;;2.83;;
19889;SDS011;10107;51.198;6.824;2022-07-23T12:19:38;3.42;;;2.58;;
19889;SDS011;10107;51.198;6.824;2022-07-23T12:23:40;4.45;;;2.25;;
19889;SDS011;10107;51.198;6.824;2022-07-23T12:27:43;3.57;;;2.50;;
19889;SDS011;10107;51.198;6.824;2022-07-23T12:31:47;4.45;;;3.15;;
19889;SDS011;10107;51.198;6.824;2022-07-23T12:35:49;4.63;;;3.40;;
19889;SDS011;10107;51.198;6.824;2022-07-23T12:39:53;7.07;;;3.20;;
19889;SDS011;10107;51.198;6.824;2022-07-23T12:43:55;3.17;;;2.87;;
19889;SDS011;10107;51.198;6.824;2022-07-23T12:48:03;4.00;;;2.20;;
19889;SDS011;10107;51.198;6.824;2022-07-23T12:52:14;2.95;;;2.65;;
19889;SDS011;10107;51.198;6.824;2022-07-23T12:56:18;2.90;;;2.45;;
19889;SDS011;10107;51.198;6.824;2022-07-23T13:00:23;3.35;;;2.95;;
19889;SDS011;10107;51.198;6.824;2022-07-23T13:04:26;4.53;;;2.73;;
19889;SDS011;10107;51.198;6.824;2022-07-23T13:08:29;4.18;;;2.60;;
19889;SDS011;10107;51.198;6.824;2022-07-23T13:12:32;4.35;;;2.92;;
19889;SDS011;10107;51.198;6.824;2022-07-23T13:16:33;4.03;;;2.38;;
19889;SDS011;10107;51.198;6.824;2022-07-23T13:20:37;3.42;;;2.42;;
19889;SDS011;10107;51.198;6.824;2022-07-23T13:24:39;3.10;;;2.75;;
19889;SDS011;10107;51.198;6.824;2022-07-23T13:28:41;2.75;;;1.90;;
19889;SDS011;10107;51.198;6.824;2022-07-23T13:32:43;2.40;;;2.05;;
19889;SDS011;10107;51.198;6.824;2022-07-23T13:36:46;2.75;;;2.00;;
19889;SDS011;10107;51.198;6.824;2022-07-23T13:40:49;4.05;;;2.28;;
19889;SDS011;10107;51.198;6.824;2022-07-23T13:44:51;2.53;;;2.15;;
19889;SDS011;10107;51.198;6.824;2022-07-23T13:48:53;2.25;;;2.00;;
19889;SDS011;10107;51.198;6.824;2022-07-23T13:52:56;3.55;;;2.08;;
19889;SDS011;10107;51.198;6.824;2022-07-23T13:57:01;2.47;;;2.20;;
19889;SDS011;10107;51.198;6.824;2022-07-23T14:01:03;2.63;;;2.40;;
19889;SDS011;10107;51.198;6.824;2022-07-23T14:05:05;3.30;;;2.35;;
19889;SDS011;10107;51.198;6.824;2022-07-23T14:09:10;2.70;;;2.10;;
19889;SDS011;10107;51.198;6.824;2022-07-23T14:17:14;3.50;;;2.25;;
19889;SDS011;10107;51.198;6.824;2022-07-23T14:21:16;3.15;;;2.50;;
19889;SDS011;10107;51.198;6.824;2022-07-23T14:25:19;2.92;;;2.08;;
19889;SDS011;10107;51.198;6.824;2022-07-23T14:29:21;2.40;;;2.20;;
19889;SDS011;10107;51.198;6.824;2022-07-23T14:33:23;2.58;;;2.10;;
19889;SDS011;10107;51.198;6.824;2022-07-23T14:37:32;4.38;;;2.17;;
19889;SDS011;10107;51.198;6.824;2022-07-23T14:41:36;2.38;;;2.03;;
19889;SDS011;10107;51.198;6.824;2022-07-23T14:45:37;2.00;;;1.80;;
19889;SDS011;10107;51.198;6.824;2022-07-23T14:49:40;3.05;;;2.30;;
19889;SDS011;10107;51.198;6.824;2022-07-23T14:53:41;2.47;;;2.03;;
19889;SDS011;10107;51.198;6.824;2022-07-23T14:57:44;2.25;;;2.05;;
19889;SDS011;10107;51.198;6.824;2022-07-23T15:01:46;2.40;;;2.10;;
19889;SDS011;10107;51.198;6.824;2022-07-23T15:05:48;3.15;;;2.15;;
19889;SDS011;10107;51.198;6.824;2022-07-23T15:09:51;2.63;;;2.43;;
19889;SDS011;10107;51.198;6.824;2022-07-23T15:13:54;3.33;;;2.13;;
19889;SDS011;10107;51.198;6.824;2022-07-23T15:17:56;2.55;;;2.10;;
19889;SDS011;10107;51.198;6.824;2022-07-23T15:21:58;2.28;;;1.90;;
19889;SDS011;10107;51.198;6.824;2022-07-23T15:26:00;2.97;;;2.30;;
19889;SDS011;10107;51.198;6.824;2022-07-23T15:30:04;3.45;;;2.53;;
19889;SDS011;10107;51.198;6.824;2022-07-23T15:34:07;2.38;;;2.17;;
19889;SDS011;10107;51.198;6.824;2022-07-23T15:38:09;3.25;;;2.10;;
19889;SDS011;10107;51.198;6.824;2022-07-23T15:42:11;2.30;;;2.10;;
19889;SDS011;10107;51.198;6.824;2022-07-23T15:46:14;3.08;;;2.53;;
19889;SDS011;10107;51.198;6.824;2022-07-23T15:50:17;3.30;;;2.13;;
19889;SDS011;10107;51.198;6.824;2022-07-23T15:54:19;3.47;;;2.17;;
19889;SDS011;10107;51.198;6.824;2022-07-23T15:58:21;2.97;;;2.20;;
19889;SDS011;10107;51.198;6.824;2022-07-23T16:02:24;2.22;;;2.03;;
19889;SDS011;10107;51.198;6.824;2022-07-23T16:10:28;4.18;;;3.03;;
19889;SDS011;10107;51.198;6.824;2022-07-23T16:14:30;3.08;;;2.50;;
19889;SDS011;10107;51.198;6.824;2022-07-23T16:18:33;4.13;;;2.75;;
19889;SDS011;10107;51.198;6.824;2022-07-23T16:22:35;2.40;;;2.20;;
19889;SDS011;10107;51.198;6.824;2022-07-23T16:26:37;2.47;;;2.28;;
19889;SDS011;10107;51.198;6.824;2022-07-23T16:30:39;2.10;;;1.90;;
19889;SDS011;10107;51.198;6.824;2022-07-23T16:34:43;3.22;;;2.50;;
19889;SDS011;10107;51.198;6.824;2022-07-23T16:42:46;2.30;;;2.10;;
19889;SDS011;10107;51.198;6.824;2022-07-23T16:46:48;4.05;;;3.63;;
19889;SDS011;10107;51.198;6.824;2022-07-23T16:50:52;3.40;;;3.10;;
19889;SDS011;10107;51.198;6.824;2022-07-23T16:54:54;3.33;;;2.50;;
19889;SDS011;10107;51.198;6.824;2022-07-23T16:58:56;3.17;;;2.30;;
19889;SDS011;10107;51.198;6.824;2022-07-23T17:02:57;5.68;;;4.60;;
19889;SDS011;10107;51.198;6.824;2022-07-23T17:07:01;4.38;;;3.28;;
19889;SDS011;10107;51.198;6.824;2022-07-23T17:11:05;5.05;;;3.58;;
19889;SDS011;10107;51.198;6.824;2022-07-23T17:15:07;4.00;;;2.97;;
19889;SDS011;10107;51.198;6.824;2022-07-23T17:19:09;3.00;;;2.67;;
19889;SDS011;10107;51.198;6.824;2022-07-23T17:23:14;2.80;;;2.45;;
19889;SDS011;10107;51.198;6.824;2022-07-23T17:27:16;2.22;;;2.00;;
19889;SDS011;10107;51.198;6.824;2022-07-23T17:31:18;4.75;;;2.33;;
19889;SDS011;10107;51.198;6.824;2022-07-23T17:35:20;2.95;;;2.25;;
19889;SDS011;10107;51.198;6.824;2022-07-23T17:39:23;3.38;;;2.55;;
19889;SDS011;10107;51.198;6.824;2022-07-23T17:43:25;2.17;;;1.88;;
19889;SDS011;10107;51.198;6.824;2022-07-23T17:47:27;3.05;;;2.35;;
19889;SDS011;10107;51.198;6.824;2022-07-23T17:51:29;5.18;;;3.42;;
19889;SDS011;10107;51.198;6.824;2022-07-23T17:55:33;2.97;;;2.60;;
19889;SDS011;10107;51.198;6.824;2022-07-23T17:59:35;2.97;;;2.65;;
19889;SDS011;10107;51.198;6.824;2022-07-23T18:03:37;2.40;;;2.20;;
19889;SDS011;10107;51.198;6.824;2022-07-23T18:07:40;2.30;;;2.10;;
19889;SDS011;10107;51.198;6.824;2022-07-23T18:11:43;3.30;;;1.90;;
19889;SDS011;10107;51.198;6.824;2022-07-23T18:15:45;2.50;;;2.30;;
19889;SDS011;10107;51.198;6.824;2022-07-23T18:19:47;2.30;;;2.10;;
19889;SDS011;10107;51.198;6.824;2022-07-23T18:23:49;2.35;;;2.10;;
19889;SDS011;10107;51.198;6.824;2022-07-23T18:27:52;3.08;;;2.75;;
19889;SDS011;10107;51.198;6.824;2022-07-23T18:31:54;4.13;;;3.13;;
19889;SDS011;10107;51.198;6.824;2022-07-23T18:35:56;4.55;;;3.40;;
19889;SDS011;10107;51.198;6.824;2022-07-23T18:39:58;4.47;;;3.10;;
19889;SDS011;10107;51.198;6.824;2022-07-23T18:44:02;3.70;;;2.50;;
19889;SDS011;10107;51.198;6.824;2022-07-23T18:48:04;3.67;;;2.63;;
19889;SDS011;10107;51.198;6.824;2022-07-23T18:52:07;2.93;;;2.63;;
19889;SDS011;10107;51.198;6.824;2022-07-23T18:56:09;3.30;;;2.78;;
19889;SDS011;10107;51.198;6.824;2022-07-23T19:00:13;4.40;;;3.20;;
19889;SDS011;10107;51.198;6.824;2022-07-23T19:04:15;3.75;;;2.92;;
19889;SDS011;10107;51.198;6.824;2022-07-23T19:08:17;3.50;;;3.17;;
19889;SDS011;10107;51.198;6.824;2022-07-23T19:12:19;6.05;;;4.15;;
19889;SDS011;10107;51.198;6.824;2022-07-23T19:16:22;4.13;;;3.58;;
19889;SDS011;10107;51.198;6.824;2022-07-23T19:20:24;4.68;;;3.42;;
19889;SDS011;10107;51.198;6.824;2022-07-23T19:24:26;3.33;;;2.95;;
19889;SDS011;10107;51.198;6.824;2022-07-23T19:28:29;4.18;;;3.35;;
19889;SDS011;10107;51.198;6.824;2022-07-23T19:32:32;3.95;;;3.47;;
19889;SDS011;10107;51.198;6.824;2022-07-23T19:36:34;4.13;;;3.58;;
19889;SDS011;10107;51.198;6.824;2022-07-23T19:40:35;4.28;;;3.20;;
19889;SDS011;10107;51.198;6.824;2022-07-23T19:44:37;3.33;;;3.03;;
19889;SDS011;10107;51.198;6.824;2022-07-23T19:48:41;4.00;;;3.20;;
19889;SDS011;10107;51.198;6.824;2022-07-23T19:52:43;3.17;;;2.88;;
19889;SDS011;10107;51.198;6.824;2022-07-23T19:56:46;3.80;;;2.90;;
19889;SDS011;10107;51.198;6.824;2022-07-23T20:00:47;4.07;;;3.28;;
19889;SDS011;10107;51.198;6.824;2022-07-23T20:04:51;4.55;;;3.28;;
19889;SDS011;10107;51.198;6.824;2022-07-23T20:08:52;3.92;;;3.20;;
19889;SDS011;10107;51.198;6.824;2022-07-23T20:12:54;4.53;;;3.58;;
19889;SDS011;10107;51.198;6.824;2022-07-23T20:16:56;4.32;;;3.60;;
19889;SDS011;10107;51.198;6.824;2022-07-23T20:20:59;4.35;;;3.53;;
19889;SDS011;10107;51.198;6.824;2022-07-23T20:25:01;4.22;;;3.60;;
19889;SDS011;10107;51.198;6.824;2022-07-23T20:29:04;4.10;;;3.70;;
19889;SDS011;10107;51.198;6.824;2022-07-23T20:33:06;6.30;;;4.40;;
19889;SDS011;10107;51.198;6.824;2022-07-23T20:37:09;5.70;;;4.20;;
19889;SDS011;10107;51.198;6.824;2022-07-23T20:41:11;5.32;;;4.35;;
19889;SDS011;10107;51.198;6.824;2022-07-23T20:45:13;5.20;;;4.35;;
19889;SDS011;10107;51.198;6.824;2022-07-23T20:49:15;5.88;;;4.60;;
19889;SDS011;10107;51.198;6.824;2022-07-23T20:53:19;6.55;;;5.28;;
19889;SDS011;10107;51.198;6.824;2022-07-23T20:57:21;5.78;;;5.03;;
19889;SDS011;10107;51.198;6.824;2022-07-23T21:01:22;6.13;;;5.45;;
19889;SDS011;10107;51.198;6.824;2022-07-23T21:05:24;6.75;;;5.10;;
19889;SDS011;10107;51.198;6.824;2022-07-23T21:09:28;6.82;;;6.13;;
19889;SDS011;10107;51.198;6.824;2022-07-23T21:13:30;6.72;;;5.90;;
19889;SDS011;10107;51.198;6.824;2022-07-23T21:17:31;7.05;;;6.10;;
19889;SDS011;10107;51.198;6.824;2022-07-23T21:21:33;6.43;;;5.75;;
19889;SDS011;10107;51.198;6.824;2022-07-23T21:25:36;6.28;;;5.68;;
19889;SDS011;10107;51.198;6.824;2022-07-23T21:29:38;6.93;;;5.90;;
19889;SDS011;10107;51.198;6.824;2022-07-23T21:33:40;6.20;;;5.45;;
19889;SDS011;10107;51.198;6.824;2022-07-23T21:37:43;7.63;;;5.80;;
19889;SDS011;10107;51.198;6.824;2022-07-23T21:41:46;6.95;;;5.30;;
19889;SDS011;10107;51.198;6.824;2022-07-23T21:45:48;5.43;;;4.93;;
19889;SDS011;10107;51.198;6.824;2022-07-23T21:49:50;7.45;;;5.50;;
19889;SDS011;10107;51.198;6.824;2022-07-23T21:53:52;5.53;;;4.88;;
19889;SDS011;10107;51.198;6.824;2022-07-23T21:57:56;6.22;;;5.05;;
19889;SDS011;10107;51.198;6.824;2022-07-23T22:01:58;5.45;;;4.75;;
19889;SDS011;10107;51.198;6.824;2022-07-23T22:06:01;6.68;;;5.00;;
19889;SDS011;10107;51.198;6.824;2022-07-23T22:10:03;5.47;;;4.97;;
19889;SDS011;10107;51.198;6.824;2022-07-23T22:14:07;6.57;;;5.25;;
19889;SDS011;10107;51.198;6.824;2022-07-23T22:18:09;3.35;;;3.03;;
19889;SDS011;10107;51.198;6.824;2022-07-23T22:22:11;6.07;;;4.57;;
19889;SDS011;10107;51.198;6.824;2022-07-23T22:26:13;5.85;;;5.05;;
19889;SDS011;10107;51.198;6.824;2022-07-23T22:30:16;5.80;;;5.20;;
19889;SDS011;10107;51.198;6.824;2022-07-23T22:34:19;6.45;;;5.70;;
19889;SDS011;10107;51.198;6.824;2022-07-23T22:38:21;5.78;;;5.13;;
19889;SDS011;10107;51.198;6.824;2022-07-23T22:42:22;6.60;;;4.70;;
19889;SDS011;10107;51.198;6.824;2022-07-23T22:46:26;5.78;;;4.65;;
19889;SDS011;10107;51.198;6.824;2022-07-23T22:50:28;6.68;;;5.10;;
19889;SDS011;10107;51.198;6.824;2022-07-23T22:54:29;5.68;;;4.90;;
19889;SDS011;10107;51.198;6.824;2022-07-23T22:58:31;5.75;;;4.90;;
19889;SDS011;10107;51.198;6.824;2022-07-23T23:02:35;6.60;;;5.45;;
19889;SDS011;10107;51.198;6.824;2022-07-23T23:06:36;5.85;;;4.93;;
19889;SDS011;10107;51.198;6.824;2022-07-23T23:10:38;6.75;;;5.45;;
19889;SDS011;10107;51.198;6.824;2022-07-23T23:14:40;7.47;;;5.45;;
19889;SDS011;10107;51.198;6.824;2022-07-23T23:18:44;6.22;;;5.55;;
19889;SDS011;10107;51.198;6.824;2022-07-23T23:22:46;6.07;;;5.32;;
19889;SDS011;10107;51.198;6.824;2022-07-23T23:26:48;6.32;;;5.47;;
19889;SDS011;10107;51.198;6.824;2022-07-23T23:30:50;5.68;;;5.07;;
19889;SDS011;10107;51.198;6.824;2022-07-23T23:34:53;8.35;;;5.82;;
19889;SDS011;10107;51.198;6.824;2022-07-23T23:38:55;6.60;;;5.30;;
19889;SDS011;10107;51.198;6.824;2022-07-23T23:42:57;7.18;;;5.78;;
19889;SDS011;10107;51.198;6.824;2022-07-23T23:46:59;9.65;;;7.40;;
19889;SDS011;10107;51.198;6.824;2022-07-23T23:51:02;6.70;;;5.90;;
19889;SDS011;10107;51.198;6.824;2022-07-23T23:55:05;6.78;;;5.60;;
19889;SDS011;10107;51.198;6.824;2022-07-23T23:59:07;7.90;;;5.45;;
